Time;durP1;ratioP1;P1;durP2;ratioP2;P2;SDS_P1;SDS_P2;PMS_P1;PMS_P2;Temp;Humidity;BMP_temperature;BMP_pressure;BME280_temperature;BME280_humidity;BME280_pressure;Samples;Min_cycle;Max_cycle;Signal;HPM_P1;HPM_P2
2021/04/13 05:58:49;;;;;;;33.15;18.52;;;;;;;10.39;73.51;100327.27;1834200;77;25852;-57
2021/04/13 06:01:20;;;;;;;34.60;18.52;;;;;;;10.46;73.29;100330.14;1721708;83;21142;-53
2021/04/13 06:03:50;;;;;;;33.85;17.57;;;;;;;10.60;72.94;100338.00;1706204;82;21577;-54
2021/04/13 06:06:20;;;;;;;38.70;18.62;;;;;;;10.74;72.41;100337.53;1713894;84;21590;-53
2021/04/13 06:08:49;;;;;;;32.05;18.75;;;;;;;10.89;71.82;100332.68;1713994;84;21590;-55
2021/04/13 06:11:20;;;;;;;39.48;18.45;;;;;;;11.05;71.40;100332.86;1702470;83;21706;-55
2021/04/13 06:13:48;;;;;;;34.95;19.17;;;;;;;11.19;70.95;100339.42;1696784;83;21139;-54
2021/04/13 06:16:19;;;;;;;34.50;17.92;;;;;;;11.34;70.59;100336.64;1692144;85;21589;-56
2021/04/13 06:18:49;;;;;;;37.08;19.40;;;;;;;11.51;69.70;100339.77;1692296;84;21160;-54
2021/04/13 06:21:18;;;;;;;30.70;18.15;;;;;;;11.67;68.72;100336.96;1691684;84;21314;-55
2021/04/13 06:23:46;;;;;;;33.38;18.50;;;;;;;11.79;67.98;100342.31;1710271;83;21570;-56
2021/04/13 06:26:15;;;;;;;30.65;18.52;;;;;;;11.94;67.43;100338.73;1693532;84;21600;-55
2021/04/13 06:28:44;;;;;;;37.13;19.62;;;;;;;12.08;67.02;100341.63;1680038;84;21592;-55
2021/04/13 06:31:12;;;;;;;37.35;19.23;;;;;;;12.24;66.66;100334.88;1672407;85;21662;-55
2021/04/13 06:33:41;;;;;;;33.90;20.05;;;;;;;12.36;66.11;100327.92;1691874;84;21639;-55
2021/04/13 06:36:11;;;;;;;36.28;19.45;;;;;;;12.50;65.67;100330.95;1705364;83;21800;-55
2021/04/13 06:38:39;;;;;;;49.03;25.68;;;;;;;12.62;65.11;100335.77;1694638;83;21182;-55
2021/04/13 06:42:01;;;;;;;38.25;21.07;;;;;;;12.72;64.79;100334.83;1692653;82;21643;-56
2021/04/13 06:45:00;;;;;;;35.10;19.32;;;;;;;12.82;63.94;100335.55;1709510;83;21697;-55
2021/04/13 06:47:51;;;;;;;30.35;18.07;;;;;;;12.90;63.41;100335.57;1693530;82;21150;-55
2021/04/13 06:50:59;;;;;;;37.88;19.05;;;;;;;12.93;63.06;100340.03;1689374;83;21677;-54
2021/04/13 06:53:39;;;;;;;144.32;77.67;;;;;;;12.94;63.05;100340.84;1702532;83;21542;-55
2021/04/13 06:56:28;;;;;;;37.90;21.50;;;;;;;12.99;62.75;100346.94;1721823;83;21681;-55
2021/04/13 06:59:19;;;;;;;43.00;23.87;;;;;;;13.01;62.52;100345.79;1679302;85;21158;-55
2021/04/13 07:01:57;;;;;;;42.40;20.40;;;;;;;13.07;62.26;100354.84;1756286;81;21202;-53
2021/04/13 07:04:55;;;;;;;44.13;26.73;;;;;;;13.14;61.88;100354.04;1756189;82;21634;-54
2021/04/13 07:07:31;;;;;;;43.10;25.50;;;;;;;13.18;61.54;100349.31;1756791;81;21629;-53
2021/04/13 07:10:32;;;;;;;34.50;21.25;;;;;;;13.25;61.40;100352.15;1756627;81;21143;-53
2021/04/13 07:13:14;;;;;;;35.90;22.15;;;;;;;13.34;60.90;100355.11;1755880;81;21637;-55
2021/04/13 07:16:12;;;;;;;30.55;19.57;;;;;;;13.40;60.72;100355.80;1756746;81;21543;-55
2021/04/13 07:18:50;;;;;;;35.38;18.57;;;;;;;13.50;60.62;100355.67;1756790;82;21780;-55
2021/04/13 07:21:39;;;;;;;32.00;18.15;;;;;;;13.58;60.22;100356.98;1722494;83;21593;-56
2021/04/13 07:24:45;;;;;;;30.32;18.02;;;;;;;13.61;60.00;100358.81;1725920;83;21716;-56
2021/04/13 07:27:18;;;;;;;33.88;19.07;;;;;;;13.62;60.00;100367.51;1726661;82;21627;-56
2021/04/13 07:29:51;;;;;;;32.28;17.07;;;;;;;13.62;59.99;100360.95;1726681;82;21570;-56
2021/04/13 07:32:22;;;;;;;35.43;18.27;;;;;;;13.55;59.54;100361.27;1726692;83;21693;-56
2021/04/13 07:34:55;;;;;;;33.08;17.77;;;;;;;13.44;59.49;100362.37;1725649;82;21134;-56
2021/04/13 07:37:38;;;;;;;29.67;16.73;;;;;;;13.33;60.00;100356.92;1721087;83;21162;-57
2021/04/13 07:40:17;;;;;;;29.98;18.07;;;;;;;13.36;60.35;100357.93;1686457;85;21603;-56
2021/04/13 07:42:50;;;;;;;40.30;25.20;;;;;;;13.40;60.32;100361.04;1685952;85;21120;-57
2021/04/13 07:45:24;;;;;;;42.67;21.30;;;;;;;13.43;60.35;100363.36;1732023;82;21332;-55
2021/04/13 07:47:59;;;;;;;38.23;20.95;;;;;;;13.44;60.26;100364.51;1730058;82;21613;-56
2021/04/13 07:51:14;;;;;;;35.07;21.83;;;;;;;13.45;60.60;100358.27;1741965;82;21127;-55
2021/04/13 07:54:14;;;;;;;34.30;20.48;;;;;;;13.52;60.50;100361.56;1734987;82;21569;-54
2021/04/13 07:56:59;;;;;;;27.85;16.65;;;;;;;13.61;60.39;100364.06;1758152;80;21202;-55
2021/04/13 07:59:46;;;;;;;26.65;15.75;;;;;;;13.68;60.26;100358.98;1760044;80;21680;-55
2021/04/13 08:02:14;;;;;;;39.65;17.35;;;;;;;13.70;59.84;100360.95;1792566;80;21170;-54
2021/04/13 08:04:48;;;;;;;35.88;17.77;;;;;;;13.65;59.97;100363.23;1764952;80;21578;-54
2021/04/13 08:07:22;;;;;;;29.80;16.77;;;;;;;13.59;59.75;100360.75;1750815;80;21095;-55
2021/04/13 08:10:25;;;;;;;29.30;16.25;;;;;;;13.54;60.00;100362.22;1749575;80;21744;-55
2021/04/13 08:12:58;;;;;;;32.45;16.15;;;;;;;13.55;60.08;100362.58;1732205;81;21115;-54
2021/04/13 08:15:50;;;;;;;26.73;16.30;;;;;;;13.59;60.21;100366.01;1739478;81;21126;-54
2021/04/13 08:18:37;;;;;;;28.92;16.62;;;;;;;13.64;60.17;100369.47;1732483;81;21599;-55
2021/04/13 08:21:26;;;;;;;29.55;17.62;;;;;;;13.72;60.34;100366.36;1736385;81;22005;-54
2021/04/13 08:23:55;;;;;;;33.28;16.52;;;;;;;13.85;60.56;100361.12;1714881;83;21167;-54
2021/04/13 08:26:37;;;;;;;35.38;17.65;;;;;;;13.95;60.29;100359.98;1706416;83;21170;-55
2021/04/13 08:29:38;;;;;;;29.55;16.95;;;;;;;14.05;60.20;100361.16;1688811;84;21624;-55
2021/04/13 08:35:55;;;;;;;33.70;18.90;;;;;;;14.33;59.60;100354.23;1683374;84;21185;-53
2021/04/13 08:38:50;;;;;;;35.15;17.50;;;;;;;14.45;59.42;100352.41;1707947;82;21668;-56
2021/04/13 08:41:35;;;;;;;28.15;15.70;;;;;;;14.56;59.31;100346.02;1681588;84;21660;-56
2021/04/13 08:44:48;;;;;;;27.48;15.88;;;;;;;14.67;58.85;100349.61;1706243;83;21594;-56
2021/04/13 08:47:52;;;;;;;24.87;17.10;;;;;;;14.81;58.60;100344.14;1671502;84;21509;-55
2021/04/13 08:50:42;;;;;;;24.90;15.98;;;;;;;14.95;58.26;100341.30;1700594;83;21320;-54
2021/04/13 08:53:35;;;;;;;28.92;16.30;;;;;;;15.02;57.73;100339.62;1689025;84;22270;-58
2021/04/13 08:56:25;;;;;;;23.98;16.10;;;;;;;14.97;57.43;100335.39;1707093;83;21159;-53
2021/04/13 08:59:03;;;;;;;28.00;15.83;;;;;;;14.96;57.56;100338.48;1696207;83;21320;-55
2021/04/13 09:01:41;;;;;;;25.75;16.35;;;;;;;14.95;57.37;100338.16;1724101;82;21283;-55
2021/04/13 09:04:15;;;;;;;27.55;16.55;;;;;;;14.97;57.09;100334.89;1708428;83;21763;-57
2021/04/13 09:06:56;;;;;;;26.48;16.12;;;;;;;14.97;57.71;100327.49;1730727;81;21107;-56
2021/04/13 09:12:33;;;;;;;24.95;14.85;;;;;;;15.34;57.74;100321.05;1666187;84;21162;-55
2021/04/13 09:15:25;;;;;;;27.95;15.70;;;;;;;15.55;56.83;100323.06;1670484;84;21819;-55
2021/04/13 09:18:20;;;;;;;20.75;14.33;;;;;;;15.66;56.05;100323.69;1695015;85;21795;-57
2021/04/13 09:21:11;;;;;;;24.45;15.60;;;;;;;15.76;55.78;100318.98;1727158;83;21130;-55
2021/04/13 09:24:00;;;;;;;25.15;15.08;;;;;;;15.77;55.26;100321.44;1663734;84;21554;-56
2021/04/13 09:27:01;;;;;;;23.98;14.65;;;;;;;15.80;55.66;100321.10;1682886;83;21193;-55
2021/04/13 09:29:47;;;;;;;23.92;14.95;;;;;;;15.96;55.05;100324.59;1691745;83;21201;-55
2021/04/13 09:32:31;;;;;;;32.03;16.77;;;;;;;15.93;54.80;100325.78;1701338;82;21288;-55
2021/04/13 09:35:44;;;;;;;27.52;17.07;;;;;;;15.90;54.70;100328.78;1680555;82;21146;-56
2021/04/13 09:38:56;;;;;;;21.20;15.28;;;;;;;15.88;54.68;100324.98;1682251;84;21145;-55
2021/04/13 09:41:43;;;;;;;27.17;14.98;;;;;;;15.76;54.54;100319.80;1682449;84;21145;-55
2021/04/13 09:44:29;;;;;;;34.48;20.35;;;;;;;15.79;55.14;100326.55;1690121;84;21166;-56
2021/04/13 09:47:21;;;;;;;27.65;17.12;;;;;;;15.91;54.71;100317.23;1682248;84;21613;-54
2021/04/13 09:50:07;;;;;;;28.52;15.50;;;;;;;16.06;54.88;100314.63;1690093;83;21584;-55
2021/04/13 09:53:09;;;;;;;25.08;14.87;;;;;;;16.26;54.27;100311.80;1686265;85;21189;-58
2021/04/13 09:55:45;;;;;;;54.83;31.50;;;;;;;16.37;53.62;100313.19;1694344;84;21645;-56
2021/04/13 09:58:46;;;;;;;28.25;17.80;;;;;;;16.41;53.27;100307.38;1685129;84;21674;-53
2021/04/13 10:01:40;;;;;;;24.00;15.38;;;;;;;16.34;53.35;100305.66;1697813;84;21617;-54
2021/04/13 10:04:34;;;;;;;24.87;15.72;;;;;;;16.36;53.33;100299.69;1711755;84;21592;-58
2021/04/13 10:07:24;;;;;;;26.48;16.05;;;;;;;16.39;53.14;100301.95;1713069;84;21583;-57
2021/04/13 10:09:54;;;;;;;26.07;15.53;;;;;;;16.41;53.55;100303.42;1712762;84;21299;-58
2021/04/13 10:12:50;;;;;;;23.38;14.50;;;;;;;16.54;53.10;100296.20;1713851;83;21299;-56
2021/04/13 10:15:30;;;;;;;23.62;14.65;;;;;;;16.61;53.08;100291.01;1729300;83;21733;-57
2021/04/13 10:18:54;;;;;;;25.75;15.15;;;;;;;16.61;52.71;100294.47;1735313;83;21606;-57
2021/04/13 10:21:34;;;;;;;23.73;13.40;;;;;;;16.68;52.73;100289.27;1711963;83;22282;-57
2021/04/13 10:24:47;;;;;;;26.50;13.85;;;;;;;16.69;52.52;100286.95;1694083;82;21161;-57
2021/04/13 10:27:44;;;;;;;28.05;15.13;;;;;;;16.75;52.74;100295.48;1721569;83;21590;-56
2021/04/13 10:30:53;;;;;;;21.17;14.15;;;;;;;16.78;52.63;100302.23;1710253;82;21818;-55
2021/04/13 10:33:48;;;;;;;22.70;13.40;;;;;;;16.83;52.53;100303.32;1719463;83;21566;-55
2021/04/13 10:36:52;;;;;;;22.22;13.25;;;;;;;16.95;52.38;100302.33;1712509;82;21201;-55
2021/04/13 10:39:54;;;;;;;21.05;13.18;;;;;;;17.00;51.97;100303.91;1703586;83;21194;-52
2021/04/13 10:42:52;;;;;;;23.02;14.13;;;;;;;16.98;51.83;100299.84;1718245;83;21214;-52
